Time;durP1;ratioP1;P1;durP2;ratioP2;P2;SDS_P1;SDS_P2;PMS_P1;PMS_P2;Temp;Humidity;BMP_temperature;BMP_pressure;BME280_temperature;BME280_humidity;BME280_pressure;Samples;Min_cycle;Max_cycle;Signal;HPM_P1;HPM_P2
2022/03/06 10:11:29;;;;;;;20.57;18.77;;;10.50;58.00;;;;;;5068059;27;20573;-74
2022/03/06 10:13:56;;;;;;;20.50;18.60;;;10.10;59.40;;;;;;5067794;28;20448;-73
2022/03/06 10:16:23;;;;;;;19.13;17.30;;;10.50;58.60;;;;;;5067296;28;20855;-74
2022/03/06 10:18:51;;;;;;;21.30;19.40;;;10.00;56.50;;;;;;5067259;28;20535;-74
2022/03/06 10:21:23;;;;;;;18.20;16.27;;;8.20;59.80;;;;;;5067347;28;20814;-74
2022/03/06 10:23:53;;;;;;;22.07;19.77;;;7.60;63.20;;;;;;5067239;28;20927;-74
2022/03/06 10:26:22;;;;;;;18.90;17.30;;;7.30;64.60;;;;;;5067149;28;20847;-74
2022/03/06 10:29:00;;;;;;;19.20;17.40;;;7.00;64.50;;;;;;5067361;28;20801;-75
2022/03/06 10:31:28;;;;;;;18.90;17.00;;;6.60;64.00;;;;;;5058563;28;20470;-75
2022/03/06 10:34:04;;;;;;;18.00;16.37;;;6.90;64.40;;;;;;5047201;28;20820;-73
2022/03/06 10:36:37;;;;;;;17.77;16.27;;;7.80;62.50;;;;;;5046771;28;20545;-74
2022/03/06 10:39:09;;;;;;;18.97;17.10;;;8.10;61.80;;;;;;5046944;28;20912;-74
2022/03/06 10:41:38;;;;;;;18.87;17.10;;;8.50;61.10;;;;;;5046692;28;20483;-73
2022/03/06 10:44:07;;;;;;;19.60;17.77;;;9.20;61.60;;;;;;5046810;28;20993;-75
2022/03/06 10:46:36;;;;;;;20.03;18.43;;;10.10;57.50;;;;;;5046898;28;20518;-75
2022/03/06 10:49:08;;;;;;;21.17;19.20;;;10.70;57.20;;;;;;5046867;28;20457;-75
2022/03/06 10:51:40;;;;;;;19.77;17.87;;;11.50;55.60;;;;;;5046925;28;20463;-75
2022/03/06 10:54:06;;;;;;;21.10;19.40;;;11.80;54.10;;;;;;5047273;28;20444;-73
2022/03/06 10:56:33;;;;;;;19.10;17.47;;;10.60;54.10;;;;;;5046662;28;20517;-75
2022/03/06 10:59:02;;;;;;;18.87;17.07;;;10.10;54.10;;;;;;5046678;28;20444;-75
2022/03/06 11:01:31;;;;;;;19.03;17.43;;;9.20;56.40;;;;;;5046670;28;20483;-75
2022/03/06 11:03:59;;;;;;;19.80;18.23;;;8.60;58.10;;;;;;5046729;28;20506;-76
2022/03/06 11:06:28;;;;;;;17.77;16.17;;;8.00;59.30;;;;;;5046786;28;20456;-74
2022/03/06 11:08:55;;;;;;;18.73;16.83;;;7.80;59.50;;;;;;5046546;28;20835;-74
2022/03/06 11:11:22;;;;;;;17.57;15.90;;;7.30;60.00;;;;;;5038963;28;20480;-73
2022/03/06 11:13:49;;;;;;;23.13;17.30;;;7.20;60.30;;;;;;5032991;28;20644;-75
2022/03/06 11:16:16;;;;;;;17.03;15.53;;;7.10;60.80;;;;;;5033198;28;20812;-74
2022/03/06 11:18:44;;;;;;;17.47;15.83;;;7.20;60.90;;;;;;5032981;28;20464;-74
2022/03/06 11:21:11;;;;;;;17.00;15.60;;;7.00;60.70;;;;;;5033322;28;20448;-75
2022/03/06 11:23:42;;;;;;;18.10;16.40;;;7.10;61.20;;;;;;5033304;28;20503;-75
2022/03/06 11:26:26;;;;;;;17.80;16.10;;;7.10;61.30;;;;;;5033076;28;20460;-73
2022/03/06 11:29:10;;;;;;;17.13;15.40;;;7.20;61.80;;;;;;5032833;28;20882;-74
2022/03/06 11:31:47;;;;;;;17.37;15.80;;;7.70;60.80;;;;;;5032703;28;20475;-74
2022/03/06 11:34:25;;;;;;;17.33;15.63;;;8.20;59.70;;;;;;5032706;28;20456;-75
2022/03/06 11:36:56;;;;;;;17.40;15.70;;;8.50;58.60;;;;;;5032704;28;20457;-74
2022/03/06 11:39:45;;;;;;;16.30;15.00;;;8.60;58.40;;;;;;5032705;28;20445;-74
2022/03/06 11:42:50;;;;;;;18.90;17.20;;;8.80;57.60;;;;;;5032780;28;20445;-75
2022/03/06 11:45:48;;;;;;;18.23;16.13;;;9.40;56.80;;;;;;5032267;28;20983;-75
2022/03/06 11:48:26;;;;;;;17.47;16.07;;;9.80;55.60;;;;;;5032733;28;20460;-75
2022/03/06 11:51:33;;;;;;;17.77;16.20;;;10.00;53.40;;;;;;5032437;28;20547;-74
2022/03/06 11:54:04;;;;;;;16.73;15.33;;;9.80;53.60;;;;;;5030450;28;20472;-75
2022/03/06 11:57:01;;;;;;;18.50;16.90;;;10.20;52.90;;;;;;5032171;28;20460;-74
2022/03/06 11:59:38;;;;;;;18.50;17.03;;;12.40;51.10;;;;;;5031931;28;20480;-73
2022/03/06 12:02:19;;;;;;;19.20;17.53;;;13.70;47.80;;;;;;5032134;28;20525;-75
2022/03/06 12:04:51;;;;;;;17.30;16.00;;;14.30;45.60;;;;;;5031899;28;20458;-75
2022/03/06 12:07:20;;;;;;;17.73;16.33;;;13.40;44.50;;;;;;5031982;28;20449;-74
2022/03/06 12:09:53;;;;;;;16.37;15.10;;;12.90;44.90;;;;;;5031684;28;20529;-75
2022/03/06 12:12:21;;;;;;;16.70;15.30;;;13.30;44.50;;;;;;5031917;28;20448;-74
2022/03/06 12:14:50;;;;;;;19.90;18.60;;;12.00;44.70;;;;;;5031928;28;20540;-75
2022/03/06 12:17:19;;;;;;;17.27;15.77;;;11.20;47.00;;;;;;5031603;28;20453;-74
2022/03/06 12:20:15;;;;;;;18.67;17.00;;;11.80;47.00;;;;;;5031953;28;20883;-74
2022/03/06 12:22:47;;;;;;;19.00;17.47;;;13.90;46.10;;;;;;5031161;28;20903;-73
2022/03/06 12:25:21;;;;;;;18.03;16.67;;;14.70;42.70;;;;;;5031614;28;20460;-72
2022/03/06 12:28:26;;;;;;;18.10;16.60;;;13.80;43.30;;;;;;5031889;28;20960;-74
2022/03/06 12:30:55;;;;;;;17.60;16.20;;;12.40;44.50;;;;;;5031602;28;20512;-74
2022/03/06 12:33:27;;;;;;;17.10;15.70;;;12.00;46.30;;;;;;5031577;28;20540;-74
2022/03/06 12:36:14;;;;;;;17.33;15.93;;;11.90;46.10;;;;;;5031461;28;20445;-74
2022/03/06 12:38:42;;;;;;;17.30;15.80;;;11.50;46.10;;;;;;5031617;28;20552;-73
2022/03/06 12:41:11;;;;;;;18.17;16.67;;;10.50;47.50;;;;;;5031992;28;20510;-74
2022/03/06 12:43:46;;;;;;;17.63;16.03;;;9.40;49.40;;;;;;5031503;28;20453;-73
2022/03/06 12:46:13;;;;;;;15.77;14.17;;;8.70;51.30;;;;;;5031332;28;20536;-74
2022/03/06 12:48:40;;;;;;;16.67;15.30;;;8.40;52.20;;;;;;5031525;28;20446;-73
2022/03/06 12:51:07;;;;;;;16.53;15.10;;;8.10;52.70;;;;;;5031051;28;20523;-73
2022/03/06 12:53:33;;;;;;;14.17;12.40;;;8.00;53.10;;;;;;5031068;28;20465;-74
2022/03/06 12:56:00;;;;;;;15.27;14.20;;;7.70;53.20;;;;;;5031031;28;20456;-72
2022/03/06 12:58:39;;;;;;;16.73;15.53;;;7.70;53.80;;;;;;5031225;28;20468;-73
2022/03/06 13:01:07;;;;;;;16.10;14.60;;;7.50;54.20;;;;;;5030958;28;20465;-74
2022/03/06 13:03:34;;;;;;;15.97;14.50;;;7.40;54.20;;;;;;5031058;28;20950;-74
2022/03/06 13:06:14;;;;;;;16.83;15.40;;;7.60;54.80;;;;;;5029049;28;20507;-74
2022/03/06 13:08:42;;;;;;;17.30;15.73;;;7.80;54.20;;;;;;5031271;28;20849;-75
2022/03/06 13:11:09;;;;;;;15.50;14.27;;;8.00;54.00;;;;;;5030964;28;20500;-75
2022/03/06 13:13:38;;;;;;;15.43;14.10;;;8.30;53.50;;;;;;5030885;28;20445;-73
2022/03/06 13:16:07;;;;;;;16.10;14.80;;;8.60;53.20;;;;;;5030867;28;20453;-75
2022/03/06 13:18:35;;;;;;;16.67;15.17;;;8.90;53.00;;;;;;5030770;28;20459;-75
2022/03/06 13:21:01;;;;;;;17.03;15.50;;;8.60;53.20;;;;;;5030665;28;20503;-74
2022/03/06 13:23:30;;;;;;;16.90;15.50;;;8.60;53.70;;;;;;5033638;28;20449;-74
2022/03/06 13:25:57;;;;;;;16.40;15.10;;;9.10;53.50;;;;;;5031645;28;20453;-74
2022/03/06 13:28:24;;;;;;;17.33;15.93;;;9.70;52.00;;;;;;5030831;28;20499;-73
2022/03/06 13:30:51;;;;;;;16.70;15.13;;;9.60;51.50;;;;;;5030582;28;20494;-73
2022/03/06 13:33:21;;;;;;;17.67;15.60;;;9.90;52.10;;;;;;5030533;28;20644;-74
2022/03/06 13:35:47;;;;;;;17.47;15.70;;;9.40;51.20;;;;;;5030661;28;20477;-74
2022/03/06 13:38:22;;;;;;;15.57;14.27;;;8.90;51.80;;;;;;5030566;28;20454;-74
2022/03/06 13:40:51;;;;;;;17.67;16.17;;;8.40;52.70;;;;;;5030764;28;20648;-74
2022/03/06 13:43:30;;;;;;;17.77;16.37;;;8.30;53.20;;;;;;5031557;28;20441;-74
2022/03/06 13:45:57;;;;;;;17.10;15.70;;;8.40;53.60;;;;;;5031231;28;20470;-74
2022/03/06 13:48:29;;;;;;;18.07;16.33;;;8.50;53.20;;;;;;5036524;28;20453;-73
2022/03/06 13:50:56;;;;;;;16.47;14.90;;;8.70;52.80;;;;;;5030788;28;20489;-75
2022/03/06 13:53:22;;;;;;;16.17;14.73;;;9.10;52.90;;;;;;5030344;28;20464;-75
2022/03/06 13:55:50;;;;;;;16.13;14.93;;;9.00;53.00;;;;;;5031595;28;20452;-75
2022/03/06 13:58:18;;;;;;;17.60;16.10;;;8.80;53.80;;;;;;5032902;28;20457;-75
2022/03/06 14:00:47;;;;;;;17.10;15.70;;;8.90;53.90;;;;;;5030134;28;20495;-75
2022/03/06 14:03:16;;;;;;;17.73;15.93;;;8.80;54.00;;;;;;5030168;28;20461;-75
2022/03/06 14:05:49;;;;;;;16.03;14.60;;;8.40;54.20;;;;;;5030468;28;20457;-74
2022/03/06 14:08:17;;;;;;;18.27;16.53;;;8.40;54.30;;;;;;5030337;28;20548;-73
2022/03/06 14:10:47;;;;;;;16.30;15.10;;;8.30;54.50;;;;;;5030123;28;20500;-74
2022/03/06 14:13:25;;;;;;;16.93;15.53;;;8.30;54.70;;;;;;5030175;28;20879;-74
2022/03/06 14:15:54;;;;;;;17.63;16.23;;;7.90;54.60;;;;;;5030167;28;20457;-74
2022/03/06 14:18:38;;;;;;;17.83;16.20;;;7.60;55.20;;;;;;5030161;28;20972;-73
2022/03/06 14:21:18;;;;;;;15.23;13.97;;;7.30;55.20;;;;;;5030206;28;20457;-74
2022/03/06 14:23:45;;;;;;;17.73;16.20;;;7.10;55.50;;;;;;5030229;28;20445;-74
2022/03/06 14:26:13;;;;;;;17.00;15.50;;;7.10;55.90;;;;;;5030449;28;20511;-74
2022/03/06 14:28:49;;;;;;;16.80;15.40;;;7.10;55.90;;;;;;5030150;28;20449;-74
2022/03/06 14:31:16;;;;;;;15.70;14.30;;;7.00;55.90;;;;;;5029881;28;20550;-75
2022/03/06 14:33:43;;;;;;;16.50;15.00;;;7.00;55.80;;;;;;5030282;28;20454;-74
2022/03/06 14:36:11;;;;;;;17.37;15.90;;;7.00;56.00;;;;;;5030271;28;20446;-74
2022/03/06 14:38:38;;;;;;;17.20;15.70;;;7.20;56.20;;;;;;5030038;28;20449;-74
2022/03/06 14:41:05;;;;;;;17.50;16.10;;;7.50;55.40;;;;;;5029844;28;20457;-75
2022/03/06 14:43:31;;;;;;;16.27;15.00;;;7.90;54.90;;;;;;5029751;28;20519;-74
2022/03/06 14:45:58;;;;;;;16.40;15.10;;;8.30;54.80;;;;;;5030616;28;20453;-75
2022/03/06 14:48:25;;;;;;;17.43;16.00;;;8.20;55.50;;;;;;5033883;28;20462;-72
2022/03/06 14:50:51;;;;;;;16.83;15.53;;;7.90;56.80;;;;;;5033552;28;20492;-74
2022/03/06 14:53:19;;;;;;;15.50;14.07;;;7.70;57.10;;;;;;5033441;28;20507;-73
2022/03/06 14:55:46;;;;;;;14.60;13.10;;;7.50;57.60;;;;;;5033464;28;20479;-73
2022/03/06 14:58:13;;;;;;;15.43;14.07;;;7.40;57.10;;;;;;5033649;28;20941;-74
2022/03/06 15:00:41;;;;;;;16.53;15.07;;;7.20;58.40;;;;;;5033491;28;20846;-73
2022/03/06 15:03:08;;;;;;;16.80;15.40;;;6.90;58.50;;;;;;5033311;28;20511;-73
2022/03/06 15:05:35;;;;;;;16.03;14.83;;;6.80;59.10;;;;;;5033294;28;20800;-73
2022/03/06 15:08:01;;;;;;;17.70;16.10;;;6.70;59.20;;;;;;5033626;28;20452;-74
2022/03/06 15:10:29;;;;;;;17.67;16.20;;;6.80;60.10;;;;;;5032991;28;20489;-72
2022/03/06 15:12:56;;;;;;;15.57;14.27;;;6.80;59.50;;;;;;5033355;28;20840;-73
2022/03/06 15:15:23;;;;;;;16.00;14.63;;;6.80;60.00;;;;;;5033220;28;20457;-74
2022/03/06 15:17:50;;;;;;;14.53;13.47;;;6.80;59.20;;;;;;5033129;28;20453;-74
2022/03/06 15:20:17;;;;;;;16.33;14.93;;;6.60;59.00;;;;;;5033173;28;20515;-73
2022/03/06 15:22:43;;;;;;;15.60;14.20;;;6.50;59.20;;;;;;5033158;28;20449;-75
2022/03/06 15:25:10;;;;;;;17.23;15.77;;;6.50;59.60;;;;;;5033239;28;20504;-73
2022/03/06 15:27:38;;;;;;;16.10;14.90;;;6.60;60.00;;;;;;5032950;28;20454;-73
2022/03/06 15:30:06;;;;;;;16.60;15.07;;;6.30;61.10;;;;;;5033081;28;20462;-74
2022/03/06 15:32:33;;;;;;;17.13;15.73;;;6.20;61.10;;;;;;5032680;28;20489;-72
2022/03/06 15:35:00;;;;;;;14.80;13.60;;;6.20;61.20;;;;;;5032927;28;20453;-72
2022/03/06 15:37:27;;;;;;;16.60;15.20;;;6.20;61.40;;;;;;5033273;28;20504;-73
2022/03/06 15:39:54;;;;;;;17.30;15.80;;;6.10;61.20;;;;;;5032814;28;20827;-74
2022/03/06 15:42:20;;;;;;;16.23;14.83;;;6.10;61.60;;;;;;5032713;28;20824;-73
2022/03/06 15:44:48;;;;;;;15.60;14.30;;;6.10;61.70;;;;;;5032598;28;20476;-73
2022/03/06 15:47:15;;;;;;;17.07;15.53;;;6.00;61.20;;;;;;5032374;28;20500;-73
2022/03/06 15:49:41;;;;;;;15.10;13.90;;;6.00;61.90;;;;;;5033008;28;20894;-73
2022/03/06 15:52:08;;;;;;;16.40;15.10;;;5.90;62.00;;;;;;5032597;28;20481;-74
2022/03/06 15:54:35;;;;;;;18.13;16.67;;;5.80;62.40;;;;;;5032497;28;20457;-73
2022/03/06 15:57:02;;;;;;;17.30;16.00;;;5.70;62.80;;;;;;5032518;28;20453;-74
2022/03/06 15:59:29;;;;;;;16.40;14.90;;;5.70;63.50;;;;;;5032391;28;20449;-72
2022/03/06 16:01:57;;;;;;;17.20;15.90;;;5.70;63.20;;;;;;5032563;28;20473;-74
2022/03/06 16:04:23;;;;;;;16.67;15.27;;;5.60;63.10;;;;;;5032507;28;20941;-74
2022/03/06 16:06:50;;;;;;;15.47;14.30;;;5.50;63.40;;;;;;5032226;28;20495;-74
2022/03/06 16:09:17;;;;;;;21.53;14.70;;;5.50;63.70;;;;;;5032117;28;20453;-75
2022/03/06 16:11:44;;;;;;;16.37;14.90;;;5.50;63.70;;;;;;5032235;28;20485;-72
2022/03/06 16:14:11;;;;;;;15.30;14.00;;;5.40;63.70;;;;;;5032283;28;20458;-72
2022/03/06 16:16:38;;;;;;;16.90;15.40;;;5.40;64.10;;;;;;5032079;28;20453;-72
2022/03/06 16:19:06;;;;;;;17.10;15.57;;;5.40;64.20;;;;;;5032104;28;20520;-74
2022/03/06 16:21:34;;;;;;;15.90;14.40;;;5.30;64.10;;;;;;5031959;28;20867;-72
2022/03/06 16:24:01;;;;;;;15.80;14.20;;;5.40;64.40;;;;;;5031833;28;20485;-74
2022/03/06 16:26:27;;;;;;;17.03;15.63;;;5.40;64.60;;;;;;5032080;28;20793;-72
2022/03/06 16:28:54;;;;;;;16.93;15.43;;;5.30;64.50;;;;;;5031896;28;20445;-73
2022/03/06 16:31:21;;;;;;;16.23;14.93;;;5.20;65.00;;;;;;5031592;28;20493;-73
2022/03/06 16:33:47;;;;;;;16.97;15.40;;;5.20;65.20;;;;;;5031665;28;20592;-73
2022/03/06 16:36:15;;;;;;;15.80;14.40;;;5.20;65.50;;;;;;5031595;28;20449;-73
2022/03/06 16:38:42;;;;;;;16.53;15.10;;;5.10;65.70;;;;;;5031801;28;20453;-73
2022/03/06 16:41:09;;;;;;;16.97;15.40;;;5.20;66.70;;;;;;5031667;28;20446;-72
2022/03/06 16:43:35;;;;;;;16.57;15.07;;;5.20;66.50;;;;;;5031581;28;20960;-74
2022/03/06 16:46:03;;;;;;;16.40;14.90;;;5.10;66.30;;;;;;5031360;28;20444;-74
2022/03/06 16:48:31;;;;;;;18.00;16.40;;;5.00;66.60;;;;;;5031313;28;20461;-73
2022/03/06 16:50:57;;;;;;;16.60;14.83;;;5.00;67.00;;;;;;5031458;28;20636;-71
2022/03/06 16:53:27;;;;;;;16.93;15.27;;;5.00;66.60;;;;;;5031409;28;20457;-74
2022/03/06 16:55:53;;;;;;;19.23;17.23;;;4.90;67.40;;;;;;5031502;28;20507;-74
2022/03/06 16:58:20;;;;;;;17.70;16.00;;;4.90;67.20;;;;;;5031442;28;20457;-73
2022/03/06 17:00:47;;;;;;;15.20;13.80;;;4.80;67.50;;;;;;5031057;28;20464;-74
2022/03/06 17:03:14;;;;;;;18.30;16.53;;;4.80;67.50;;;;;;5031146;28;20460;-74
2022/03/06 17:05:42;;;;;;;17.47;16.00;;;4.80;68.10;;;;;;5031151;28;20941;-75
2022/03/06 17:08:09;;;;;;;19.10;17.20;;;4.80;67.60;;;;;;5030933;28;20452;-72
2022/03/06 17:10:37;;;;;;;17.40;15.90;;;4.80;67.40;;;;;;5030395;28;20477;-73
2022/03/06 17:13:05;;;;;;;18.13;16.63;;;4.70;67.50;;;;;;5030841;28;20489;-74
2022/03/06 17:15:32;;;;;;;18.70;16.90;;;4.70;67.70;;;;;;5030847;28;20945;-74
2022/03/06 17:18:00;;;;;;;18.40;16.77;;;4.70;67.70;;;;;;5031131;28;20450;-74
2022/03/06 17:20:27;;;;;;;17.67;16.17;;;4.70;67.60;;;;;;5031074;28;20449;-73
2022/03/06 17:22:53;;;;;;;17.97;16.47;;;4.70;67.10;;;;;;5030645;28;20809;-73
2022/03/06 17:25:20;;;;;;;16.03;14.53;;;4.70;67.70;;;;;;5030501;28;20531;-73
2022/03/06 17:27:48;;;;;;;18.60;17.00;;;4.70;67.60;;;;;;5030765;28;20785;-72
2022/03/06 17:30:15;;;;;;;17.53;15.93;;;4.60;67.20;;;;;;5030650;28;20453;-73
2022/03/06 17:32:42;;;;;;;15.67;14.37;;;4.70;67.20;;;;;;5030859;28;20488;-73
2022/03/06 17:35:09;;;;;;;16.33;14.83;;;4.60;67.30;;;;;;5030779;28;20450;-73
2022/03/06 17:37:36;;;;;;;17.80;16.10;;;4.60;67.60;;;;;;5030810;28;20453;-73
2022/03/06 17:40:03;;;;;;;17.33;15.47;;;4.60;67.20;;;;;;5030544;28;20457;-73
2022/03/06 17:42:30;;;;;;;16.60;15.10;;;4.60;67.50;;;;;;5030612;28;20453;-73
2022/03/06 17:44:59;;;;;;;15.57;14.07;;;4.70;67.50;;;;;;5030548;28;20448;-72
2022/03/06 17:47:28;;;;;;;15.30;13.90;;;4.60;66.60;;;;;;5030468;28;20812;-73
2022/03/06 17:49:55;;;;;;;16.40;14.67;;;4.50;66.60;;;;;;5030664;28;20457;-73
2022/03/06 17:52:23;;;;;;;14.57;13.37;;;4.50;66.90;;;;;;5030240;28;20489;-73
2022/03/06 17:54:50;;;;;;;15.57;14.07;;;4.50;66.60;;;;;;5030437;28;20873;-72
2022/03/06 17:57:17;;;;;;;15.10;13.80;;;4.50;66.70;;;;;;5030331;28;20791;-72
